sensor_id;sensor_type;location;lat;lon;timestamp;pressure;altitude;pressure_sealevel;temperature;humidity
19112;BME280;9688;51.906;8.376;2024-03-02T00:02:22;99463.66;;;7.81;99.82
19112;BME280;9688;51.906;8.376;2024-03-02T00:05:07;99463.56;;;7.83;99.73
19112;BME280;9688;51.906;8.376;2024-03-02T00:07:54;99457.44;;;7.82;99.84
19112;BME280;9688;51.906;8.376;2024-03-02T00:10:40;99462.72;;;7.82;100.00
19112;BME280;9688;51.906;8.376;2024-03-02T00:13:26;99462.63;;;7.84;99.96
19112;BME280;9688;51.906;8.376;2024-03-02T00:16:11;99452.09;;;7.84;100.00
19112;BME280;9688;51.906;8.376;2024-03-02T00:19:04;99445.13;;;7.83;100.00
19112;BME280;9688;51.906;8.376;2024-03-02T00:21:52;99441.81;;;7.79;100.00
19112;BME280;9688;51.906;8.376;2024-03-02T00:24:38;99441.06;;;7.76;100.00
19112;BME280;9688;51.906;8.376;2024-03-02T00:27:24;99439.38;;;7.75;100.00
19112;BME280;9688;51.906;8.376;2024-03-02T00:33:36;99435.69;;;7.79;100.00
19112;BME280;9688;51.906;8.376;2024-03-02T00:36:25;99433.97;;;7.78;100.00
19112;BME280;9688;51.906;8.376;2024-03-02T00:39:12;99427.81;;;7.79;100.00
19112;BME280;9688;51.906;8.376;2024-03-02T00:41:59;99431.28;;;7.79;100.00
19112;BME280;9688;51.906;8.376;2024-03-02T00:44:44;99429.50;;;7.80;100.00
19112;BME280;9688;51.906;8.376;2024-03-02T00:47:32;99429.50;;;7.80;100.00
19112;BME280;9688;51.906;8.376;2024-03-02T00:50:18;99421.66;;;7.78;100.00
19112;BME280;9688;51.906;8.376;2024-03-02T00:53:05;99427.03;;;7.77;100.00
19112;BME280;9688;51.906;8.376;2024-03-02T00:55:50;99422.59;;;7.77;100.00
19112;BME280;9688;51.906;8.376;2024-03-02T00:58:36;99427.91;;;7.76;100.00
19112;BME280;9688;51.906;8.376;2024-03-02T01:01:21;99423.53;;;7.76;100.00
19112;BME280;9688;51.906;8.376;2024-03-02T01:04:07;99428.00;;;7.74;100.00
19112;BME280;9688;51.906;8.376;2024-03-02T01:06:52;99432.56;;;7.71;100.00
19112;BME280;9688;51.906;8.376;2024-03-02T01:09:39;99428.28;;;7.68;100.00
19112;BME280;9688;51.906;8.376;2024-03-02T01:12:25;99427.56;;;7.65;100.00
19112;BME280;9688;51.906;8.376;2024-03-02T01:15:10;99432.06;;;7.63;100.00
19112;BME280;9688;51.906;8.376;2024-03-02T01:17:55;99424.31;;;7.59;100.00
19112;BME280;9688;51.906;8.376;2024-03-02T01:20:41;99426.22;;;7.56;100.00
19112;BME280;9688;51.906;8.376;2024-03-02T01:23:26;99425.44;;;7.54;100.00
19112;BME280;9688;51.906;8.376;2024-03-02T01:26:14;99421.09;;;7.53;100.00
19112;BME280;9688;51.906;8.376;2024-03-02T01:29:00;99412.22;;;7.55;100.00
19112;BME280;9688;51.906;8.376;2024-03-02T01:31:45;99413.84;;;7.58;100.00
19112;BME280;9688;51.906;8.376;2024-03-02T01:34:30;99419.13;;;7.58;100.00
19112;BME280;9688;51.906;8.376;2024-03-02T01:37:15;99406.81;;;7.58;100.00
19112;BME280;9688;51.906;8.376;2024-03-02T01:40:01;99412.81;;;7.62;100.00
19112;BME280;9688;51.906;8.376;2024-03-02T01:42:48;99412.66;;;7.65;100.00
19112;BME280;9688;51.906;8.376;2024-03-02T01:45:33;99405.63;;;7.66;100.00
19112;BME280;9688;51.906;8.376;2024-03-02T01:48:19;99416.94;;;7.68;100.00
19112;BME280;9688;51.906;8.376;2024-03-02T01:51:04;99419.56;;;7.68;100.00
19112;BME280;9688;51.906;8.376;2024-03-02T01:53:50;99404.69;;;7.67;100.00
19112;BME280;9688;51.906;8.376;2024-03-02T01:56:35;99401.25;;;7.65;100.00
19112;BME280;9688;51.906;8.376;2024-03-02T01:59:24;99409.28;;;7.62;100.00
19112;BME280;9688;51.906;8.376;2024-03-02T02:02:09;99403.13;;;7.63;100.00
19112;BME280;9688;51.906;8.376;2024-03-02T02:04:55;99397.06;;;7.60;100.00
19112;BME280;9688;51.906;8.376;2024-03-02T02:07:40;99395.44;;;7.58;100.00
19112;BME280;9688;51.906;8.376;2024-03-02T02:10:26;99389.38;;;7.56;100.00
19112;BME280;9688;51.906;8.376;2024-03-02T02:13:11;99385.22;;;7.52;100.00
19112;BME280;9688;51.906;8.376;2024-03-02T02:16:05;99372.25;;;7.47;100.00
19112;BME280;9688;51.906;8.376;2024-03-02T02:18:51;99367.09;;;7.46;100.00
19112;BME280;9688;51.906;8.376;2024-03-02T02:21:37;99359.31;;;7.43;100.00
19112;BME280;9688;51.906;8.376;2024-03-02T02:24:23;99356.84;;;7.40;100.00
19112;BME280;9688;51.906;8.376;2024-03-02T02:27:08;99350.81;;;7.37;100.00
19112;BME280;9688;51.906;8.376;2024-03-02T02:29:54;99347.44;;;7.34;100.00
19112;BME280;9688;51.906;8.376;2024-03-02T02:32:40;99354.44;;;7.35;100.00
19112;BME280;9688;51.906;8.376;2024-03-02T02:35:25;99336.19;;;7.32;100.00
19112;BME280;9688;51.906;8.376;2024-03-02T02:38:11;99334.44;;;7.31;100.00
19112;BME280;9688;51.906;8.376;2024-03-02T02:40:57;99337.94;;;7.31;100.00
19112;BME280;9688;51.906;8.376;2024-03-02T02:43:42;99334.41;;;7.32;100.00
19112;BME280;9688;51.906;8.376;2024-03-02T02:46:27;99336.03;;;7.35;100.00
19112;BME280;9688;51.906;8.376;2024-03-02T02:49:12;99343.00;;;7.36;100.00
19112;BME280;9688;51.906;8.376;2024-03-02T02:51:57;99338.53;;;7.38;100.00
19112;BME280;9688;51.906;8.376;2024-03-02T02:54:43;99328.00;;;7.38;100.00
19112;BME280;9688;51.906;8.376;2024-03-02T02:57:29;99335.81;;;7.40;100.00
19112;BME280;9688;51.906;8.376;2024-03-02T03:00:19;99321.75;;;7.41;100.00
19112;BME280;9688;51.906;8.376;2024-03-02T03:03:07;99321.75;;;7.41;100.00
19112;BME280;9688;51.906;8.376;2024-03-02T03:05:52;99327.00;;;7.41;100.00
19112;BME280;9688;51.906;8.376;2024-03-02T03:08:37;99317.41;;;7.40;100.00
19112;BME280;9688;51.906;8.376;2024-03-02T03:11:24;99312.13;;;7.40;100.00
19112;BME280;9688;51.906;8.376;2024-03-02T03:14:10;99310.38;;;7.40;100.00
19112;BME280;9688;51.906;8.376;2024-03-02T03:16:55;99313.06;;;7.38;100.00
19112;BME280;9688;51.906;8.376;2024-03-02T03:19:40;99314.84;;;7.38;100.00
19112;BME280;9688;51.906;8.376;2024-03-02T03:22:25;99314.84;;;7.38;100.00
19112;BME280;9688;51.906;8.376;2024-03-02T03:25:11;99325.38;;;7.38;100.00
19112;BME280;9688;51.906;8.376;2024-03-02T03:27:57;99323.66;;;7.37;100.00
19112;BME280;9688;51.906;8.376;2024-03-02T03:30:43;99327.16;;;7.37;100.00
19112;BME280;9688;51.906;8.376;2024-03-02T03:33:28;99328.91;;;7.37;100.00
19112;BME280;9688;51.906;8.376;2024-03-02T03:36:13;99316.63;;;7.37;100.00
19112;BME280;9688;51.906;8.376;2024-03-02T03:38:58;99314.00;;;7.37;100.00
19112;BME280;9688;51.906;8.376;2024-03-02T03:41:46;99325.38;;;7.38;100.00
19112;BME280;9688;51.906;8.376;2024-03-02T03:44:32;99319.28;;;7.37;100.00
19112;BME280;9688;51.906;8.376;2024-03-02T03:47:18;99323.59;;;7.38;100.00
19112;BME280;9688;51.906;8.376;2024-03-02T03:50:05;99317.41;;;7.40;100.00
19112;BME280;9688;51.906;8.376;2024-03-02T03:52:50;99322.66;;;7.40;100.00
19112;BME280;9688;51.906;8.376;2024-03-02T03:55:36;99325.28;;;7.40;100.00
19112;BME280;9688;51.906;8.376;2024-03-02T03:58:21;99331.47;;;7.38;100.00
19112;BME280;9688;51.906;8.376;2024-03-02T04:01:07;99330.69;;;7.36;100.00
19112;BME280;9688;51.906;8.376;2024-03-02T04:03:53;99336.88;;;7.35;100.00
19112;BME280;9688;51.906;8.376;2024-03-02T04:06:38;99329.97;;;7.33;100.00
19112;BME280;9688;51.906;8.376;2024-03-02T04:09:24;99326.50;;;7.32;100.00
19112;BME280;9688;51.906;8.376;2024-03-02T04:12:09;99333.59;;;7.30;100.00
19112;BME280;9688;51.906;8.376;2024-03-02T04:14:56;99335.44;;;7.28;100.00
19112;BME280;9688;51.906;8.376;2024-03-02T04:17:43;99340.69;;;7.28;100.00
19112;BME280;9688;51.906;8.376;2024-03-02T04:20:28;99334.53;;;7.29;100.00
19112;BME280;9688;51.906;8.376;2024-03-02T04:23:15;99333.69;;;7.29;100.00
19112;BME280;9688;51.906;8.376;2024-03-02T04:26:00;99335.44;;;7.28;100.00
19112;BME280;9688;51.906;8.376;2024-03-02T04:28:45;99339.00;;;7.27;100.00
19112;BME280;9688;51.906;8.376;2024-03-02T04:31:30;99336.44;;;7.26;100.00
19112;BME280;9688;51.906;8.376;2024-03-02T04:34:17;99336.56;;;7.23;100.00
19112;BME280;9688;51.906;8.376;2024-03-02T04:37:02;99344.53;;;7.21;100.00
19112;BME280;9688;51.906;8.376;2024-03-02T04:39:47;99344.59;;;7.20;100.00
19112;BME280;9688;51.906;8.376;2024-03-02T04:42:33;99334.09;;;7.20;100.00
19112;BME280;9688;51.906;8.376;2024-03-02T04:45:18;99348.06;;;7.20;100.00
19112;BME280;9688;51.906;8.376;2024-03-02T04:48:04;99352.34;;;7.23;100.00
19112;BME280;9688;51.906;8.376;2024-03-02T04:50:50;99352.34;;;7.23;100.00
19112;BME280;9688;51.906;8.376;2024-03-02T04:53:36;99365.44;;;7.24;100.00
19112;BME280;9688;51.906;8.376;2024-03-02T04:56:22;99365.44;;;7.24;100.00
19112;BME280;9688;51.906;8.376;2024-03-02T04:59:28;99363.66;;;7.25;100.00
19112;BME280;9688;51.906;8.376;2024-03-02T05:02:13;99369.75;;;7.25;100.00
19112;BME280;9688;51.906;8.376;2024-03-02T05:04:59;99368.06;;;7.24;100.00
19112;BME280;9688;51.906;8.376;2024-03-02T05:07:45;99361.97;;;7.24;100.00
19112;BME280;9688;51.906;8.376;2024-03-02T05:10:30;99371.53;;;7.25;100.00
19112;BME280;9688;51.906;8.376;2024-03-02T05:13:16;99369.75;;;7.25;100.00
19112;BME280;9688;51.906;8.376;2024-03-02T05:16:02;99371.47;;;7.26;100.00
19112;BME280;9688;51.906;8.376;2024-03-02T05:18:47;99371.47;;;7.26;100.00
19112;BME280;9688;51.906;8.376;2024-03-02T05:21:33;99376.66;;;7.28;100.00
19112;BME280;9688;51.906;8.376;2024-03-02T05:24:20;99375.84;;;7.26;100.00
19112;BME280;9688;51.906;8.376;2024-03-02T05:27:05;99381.06;;;7.27;100.00
19112;BME280;9688;51.906;8.376;2024-03-02T05:29:51;99381.13;;;7.26;100.00
19112;BME280;9688;51.906;8.376;2024-03-02T05:32:36;99375.84;;;7.26;100.00
19112;BME280;9688;51.906;8.376;2024-03-02T05:35:21;99377.59;;;7.27;100.00
19112;BME280;9688;51.906;8.376;2024-03-02T05:38:06;99388.09;;;7.27;100.00
19112;BME280;9688;51.906;8.376;2024-03-02T05:40:54;99381.06;;;7.27;100.00
19112;BME280;9688;51.906;8.376;2024-03-02T05:43:39;99382.75;;;7.28;100.00
19112;BME280;9688;51.906;8.376;2024-03-02T05:46:24;99375.81;;;7.27;100.00
19112;BME280;9688;51.906;8.376;2024-03-02T05:49:10;99374.13;;;7.26;100.00
19112;BME280;9688;51.906;8.376;2024-03-02T05:51:55;99375.84;;;7.26;100.00
19112;BME280;9688;51.906;8.376;2024-03-02T05:54:41;99381.19;;;7.24;100.00
19112;BME280;9688;51.906;8.376;2024-03-02T05:57:27;99375.84;;;7.26;100.00
19112;BME280;9688;51.906;8.376;2024-03-02T06:00:29;99390.78;;;7.25;100.00
19112;BME280;9688;51.906;8.376;2024-03-02T06:03:15;99396.84;;;7.27;100.00
19112;BME280;9688;51.906;8.376;2024-03-02T06:06:00;99391.56;;;7.27;100.00
19112;BME280;9688;51.906;8.376;2024-03-02T06:08:45;99389.78;;;7.28;100.00
19112;BME280;9688;51.906;8.376;2024-03-02T06:11:30;99392.41;;;7.28;100.00
19112;BME280;9688;51.906;8.376;2024-03-02T06:14:17;99388.91;;;7.29;100.00
19112;BME280;9688;51.906;8.376;2024-03-02T06:17:03;99391.53;;;7.29;100.00
19112;BME280;9688;51.906;8.376;2024-03-02T06:19:49;99394.91;;;7.31;100.00
19112;BME280;9688;51.906;8.376;2024-03-02T06:22:34;99394.00;;;7.32;100.00
19112;BME280;9688;51.906;8.376;2024-03-02T06:25:20;99406.16;;;7.34;100.00
19112;BME280;9688;51.906;8.376;2024-03-02T06:28:05;99407.00;;;7.35;100.00
19112;BME280;9688;51.906;8.376;2024-03-02T06:30:52;99416.59;;;7.36;100.00
19112;BME280;9688;51.906;8.376;2024-03-02T06:33:38;99415.66;;;7.37;100.00
19112;BME280;9688;51.906;8.376;2024-03-02T06:36:23;99424.34;;;7.39;100.00
19112;BME280;9688;51.906;8.376;2024-03-02T06:39:10;99425.19;;;7.40;100.00
19112;BME280;9688;51.906;8.376;2024-03-02T06:41:56;99433.03;;;7.41;100.00
19112;BME280;9688;51.906;8.376;2024-03-02T06:44:41;99429.47;;;7.42;100.00
19112;BME280;9688;51.906;8.376;2024-03-02T06:47:29;99439.84;;;7.45;100.00
19112;BME280;9688;51.906;8.376;2024-03-02T06:50:14;99431.03;;;7.46;100.00
19112;BME280;9688;51.906;8.376;2024-03-02T06:52:59;99438.09;;;7.46;100.00
19112;BME280;9688;51.906;8.376;2024-03-02T06:55:45;99432.81;;;7.46;100.00
19112;BME280;9688;51.906;8.376;2024-03-02T06:58:30;99434.53;;;7.47;100.00
19112;BME280;9688;51.906;8.376;2024-03-02T07:01:16;99433.59;;;7.48;100.00
19112;BME280;9688;51.906;8.376;2024-03-02T07:04:02;99437.00;;;7.50;100.00
19112;BME280;9688;51.906;8.376;2024-03-02T07:06:50;99436.97;;;7.51;100.00
19112;BME280;9688;51.906;8.376;2024-03-02T07:09:36;99442.22;;;7.51;100.00
19112;BME280;9688;51.906;8.376;2024-03-02T07:12:21;99440.28;;;7.55;100.00
19112;BME280;9688;51.906;8.376;2024-03-02T07:15:07;99440.16;;;7.58;100.00
19112;BME280;9688;51.906;8.376;2024-03-02T07:18:12;99449.69;;;7.60;100.00
19112;BME280;9688;51.906;8.376;2024-03-02T07:20:58;99442.63;;;7.61;100.00
19112;BME280;9688;51.906;8.376;2024-03-02T07:23:45;99450.47;;;7.63;100.00
19112;BME280;9688;51.906;8.376;2024-03-02T07:26:30;99450.31;;;7.66;100.00
19112;BME280;9688;51.906;8.376;2024-03-02T07:29:16;99444.84;;;7.70;100.00
19112;BME280;9688;51.906;8.376;2024-03-02T07:32:02;99449.84;;;7.76;100.00
19112;BME280;9688;51.906;8.376;2024-03-02T07:34:48;99456.47;;;7.85;100.00
19112;BME280;9688;51.906;8.376;2024-03-02T07:37:36;99453.34;;;7.96;100.00
19112;BME280;9688;51.906;8.376;2024-03-02T07:40:21;99457.81;;;8.13;100.00
19112;BME280;9688;51.906;8.376;2024-03-02T07:43:06;99453.56;;;8.27;100.00
19112;BME280;9688;51.906;8.376;2024-03-02T07:45:52;99448.16;;;8.31;100.00
19112;BME280;9688;51.906;8.376;2024-03-02T07:48:38;99439.50;;;8.29;100.00
19112;BME280;9688;51.906;8.376;2024-03-02T07:51:23;99441.00;;;8.34;100.00
19112;BME280;9688;51.906;8.376;2024-03-02T07:54:10;99443.47;;;8.37;100.00
19112;BME280;9688;51.906;8.376;2024-03-02T07:56:55;99443.25;;;8.42;100.00
19112;BME280;9688;51.906;8.376;2024-03-02T07:59:40;99457.84;;;8.49;100.00
19112;BME280;9688;51.906;8.376;2024-03-02T08:02:26;99458.19;;;8.60;100.00
19112;BME280;9688;51.906;8.376;2024-03-02T08:05:12;99462.75;;;8.74;100.00
19112;BME280;9688;51.906;8.376;2024-03-02T08:07:57;99461.06;;;8.90;100.00
19112;BME280;9688;51.906;8.376;2024-03-02T08:10:44;99462.91;;;9.06;100.00
19112;BME280;9688;51.906;8.376;2024-03-02T08:13:31;99465.78;;;9.19;100.00
19112;BME280;9688;51.906;8.376;2024-03-02T08:16:16;99472.38;;;9.27;100.00
19112;BME280;9688;51.906;8.376;2024-03-02T08:19:03;99468.50;;;9.34;100.00
19112;BME280;9688;51.906;8.376;2024-03-02T08:21:48;99473.34;;;9.42;100.00
19112;BME280;9688;51.906;8.376;2024-03-02T08:24:33;99467.44;;;9.54;100.00
19112;BME280;9688;51.906;8.376;2024-03-02T08:27:21;99465.03;;;9.67;100.00
19112;BME280;9688;51.906;8.376;2024-03-02T08:30:07;99472.28;;;9.79;100.00
19112;BME280;9688;51.906;8.376;2024-03-02T08:32:54;99471.84;;;9.87;100.00
19112;BME280;9688;51.906;8.376;2024-03-02T08:35:39;99476.88;;;9.92;100.00
19112;BME280;9688;51.906;8.376;2024-03-02T08:38:25;99468.53;;;9.99;100.00
19112;BME280;9688;51.906;8.376;2024-03-02T08:41:10;99472.56;;;10.07;99.55
19112;BME280;9688;51.906;8.376;2024-03-02T08:43:59;99474.78;;;10.14;99.45
19112;BME280;9688;51.906;8.376;2024-03-02T08:46:44;99477.94;;;10.21;99.36
19112;BME280;9688;51.906;8.376;2024-03-02T08:49:29;99480.94;;;10.31;98.13
19112;BME280;9688;51.906;8.376;2024-03-02T08:52:15;99481.34;;;10.39;98.19
19112;BME280;9688;51.906;8.376;2024-03-02T08:55:00;99480.94;;;10.46;97.63
19112;BME280;9688;51.906;8.376;2024-03-02T08:57:45;99475.88;;;10.58;97.15
19112;BME280;9688;51.906;8.376;2024-03-02T09:00:32;99465.72;;;10.66;97.56
19112;BME280;9688;51.906;8.376;2024-03-02T09:03:17;99471.44;;;10.74;96.36
19112;BME280;9688;51.906;8.376;2024-03-02T09:06:03;99482.22;;;10.85;96.21
19112;BME280;9688;51.906;8.376;2024-03-02T09:08:48;99480.94;;;10.92;95.54
19112;BME280;9688;51.906;8.376;2024-03-02T09:11:36;99481.00;;;11.07;95.40
19112;BME280;9688;51.906;8.376;2024-03-02T09:14:21;99481.03;;;11.21;94.25
19112;BME280;9688;51.906;8.376;2024-03-02T09:17:08;99480.66;;;11.42;93.80
19112;BME280;9688;51.906;8.376;2024-03-02T09:19:55;99485.03;;;11.57;92.85
19112;BME280;9688;51.906;8.376;2024-03-02T09:22:40;99475.97;;;11.75;91.97
19112;BME280;9688;51.906;8.376;2024-03-02T09:25:26;99480.72;;;11.99;90.93
19112;BME280;9688;51.906;8.376;2024-03-02T09:28:11;99480.41;;;12.18;89.81
19112;BME280;9688;51.906;8.376;2024-03-02T09:30:56;99474.69;;;12.38;88.92
19112;BME280;9688;51.906;8.376;2024-03-02T09:33:43;99477.97;;;12.56;87.66
19112;BME280;9688;51.906;8.376;2024-03-02T09:36:28;99475.25;;;12.70;87.31
19112;BME280;9688;51.906;8.376;2024-03-02T09:39:13;99482.59;;;12.80;86.75
19112;BME280;9688;51.906;8.376;2024-03-02T09:41:59;99476.03;;;12.85;86.32
19112;BME280;9688;51.906;8.376;2024-03-02T09:44:45;99468.94;;;12.86;86.02
19112;BME280;9688;51.906;8.376;2024-03-02T09:47:30;99463.81;;;12.83;85.52
19112;BME280;9688;51.906;8.376;2024-03-02T09:50:17;99473.16;;;12.88;85.36
19112;BME280;9688;51.906;8.376;2024-03-02T09:53:03;99486.13;;;12.93;85.30
19112;BME280;9688;51.906;8.376;2024-03-02T09:59:30;99482.34;;;13.10;84.67
19112;BME280;9688;51.906;8.376;2024-03-02T10:02:16;99474.31;;;13.11;84.33
19112;BME280;9688;51.906;8.376;2024-03-02T10:05:03;99474.09;;;13.14;83.91
19112;BME280;9688;51.906;8.376;2024-03-02T10:07:58;99471.44;;;13.14;83.98
19112;BME280;9688;51.906;8.376;2024-03-02T10:10:44;99478.66;;;13.12;83.91
19112;BME280;9688;51.906;8.376;2024-03-02T10:13:29;99481.59;;;13.08;83.79
19112;BME280;9688;51.906;8.376;2024-03-02T10:16:17;99482.25;;;13.11;83.74
19112;BME280;9688;51.906;8.376;2024-03-02T10:19:18;99474.19;;;13.13;83.58
19112;BME280;9688;51.906;8.376;2024-03-02T10:22:05;99478.34;;;13.17;83.30
19112;BME280;9688;51.906;8.376;2024-03-02T10:24:53;99463.19;;;13.19;83.08
19112;BME280;9688;51.906;8.376;2024-03-02T10:28:05;99469.13;;;13.23;82.57
19112;BME280;9688;51.906;8.376;2024-03-02T10:30:33;99467.66;;;13.31;82.49
19112;BME280;9688;51.906;8.376;2024-03-02T10:33:19;99470.88;;;13.36;82.05
19112;BME280;9688;51.906;8.376;2024-03-02T10:36:05;99464.72;;;13.36;81.84
19112;BME280;9688;51.906;8.376;2024-03-02T10:38:53;99455.13;;;13.46;81.63
19112;BME280;9688;51.906;8.376;2024-03-02T10:41:41;99446.34;;;13.58;81.40
19112;BME280;9688;51.906;8.376;2024-03-02T10:44:26;99443.88;;;13.68;81.19
19112;BME280;9688;51.906;8.376;2024-03-02T10:47:12;99443.34;;;13.76;80.96
19112;BME280;9688;51.906;8.376;2024-03-02T10:50:00;99447.38;;;13.81;80.88
19112;BME280;9688;51.906;8.376;2024-03-02T10:52:47;99450.84;;;13.95;80.83
19112;BME280;9688;51.906;8.376;2024-03-02T10:55:34;99449.25;;;14.05;81.07
19112;BME280;9688;51.906;8.376;2024-03-02T10:58:22;99448.44;;;14.16;80.53
19112;BME280;9688;51.906;8.376;2024-03-02T11:01:10;99438.34;;;14.21;80.14
19112;BME280;9688;51.906;8.376;2024-03-02T11:03:56;99450.25;;;14.28;79.95
19112;BME280;9688;51.906;8.376;2024-03-02T11:06:43;99443.41;;;14.37;79.33
19112;BME280;9688;51.906;8.376;2024-03-02T11:09:34;99439.34;;;14.44;79.35
19112;BME280;9688;51.906;8.376;2024-03-02T11:12:24;99448.53;;;14.51;79.14
19112;BME280;9688;51.906;8.376;2024-03-02T11:15:17;99452.59;;;14.57;79.14
19112;BME280;9688;51.906;8.376;2024-03-02T11:18:04;99451.41;;;14.61;79.11
19112;BME280;9688;51.906;8.376;2024-03-02T11:20:53;99456.06;;;14.70;78.68
19112;BME280;9688;51.906;8.376;2024-03-02T11:23:38;99461.13;;;14.73;78.52
19112;BME280;9688;51.906;8.376;2024-03-02T11:26:24;99453.16;;;14.73;78.87
19112;BME280;9688;51.906;8.376;2024-03-02T11:29:42;99454.47;;;14.67;78.57
19112;BME280;9688;51.906;8.376;2024-03-02T11:32:29;99454.22;;;14.70;79.06
19112;BME280;9688;51.906;8.376;2024-03-02T11:35:14;99449.66;;;14.72;79.13
19112;BME280;9688;51.906;8.376;2024-03-02T11:38:01;99439.91;;;14.84;78.54
19112;BME280;9688;51.906;8.376;2024-03-02T11:40:47;99447.59;;;15.00;77.88
19112;BME280;9688;51.906;8.376;2024-03-02T11:43:32;99451.47;;;15.07;77.60
19112;BME280;9688;51.906;8.376;2024-03-02T11:46:21;99445.69;;;15.13;77.21
19112;BME280;9688;51.906;8.376;2024-03-02T11:49:09;99442.41;;;15.10;76.80
19112;BME280;9688;51.906;8.376;2024-03-02T11:52:01;99439.63;;;15.11;76.68
19112;BME280;9688;51.906;8.376;2024-03-02T11:54:47;99434.94;;;15.26;76.03
19112;BME280;9688;51.906;8.376;2024-03-02T11:57:35;99430.72;;;15.46;75.75
19112;BME280;9688;51.906;8.376;2024-03-02T12:00:20;99430.88;;;15.56;75.30
19112;BME280;9688;51.906;8.376;2024-03-02T12:03:08;99424.81;;;15.54;75.26
19112;BME280;9688;51.906;8.376;2024-03-02T12:05:55;99429.44;;;15.63;75.41
19112;BME280;9688;51.906;8.376;2024-03-02T12:08:40;99427.50;;;15.76;74.79
19112;BME280;9688;51.906;8.376;2024-03-02T12:11:27;99437.19;;;15.89;73.22
19112;BME280;9688;51.906;8.376;2024-03-02T12:14:12;99437.06;;;15.90;71.91
19112;BME280;9688;51.906;8.376;2024-03-02T12:16:58;99429.06;;;15.90;71.67
19112;BME280;9688;51.906;8.376;2024-03-02T12:19:44;99424.81;;;15.99;70.65
19112;BME280;9688;51.906;8.376;2024-03-02T12:22:31;99417.56;;;16.01;69.95
19112;BME280;9688;51.906;8.376;2024-03-02T12:25:16;99423.13;;;15.98;70.26
19112;BME280;9688;51.906;8.376;2024-03-02T12:28:01;99422.16;;;15.99;69.41
19112;BME280;9688;51.906;8.376;2024-03-02T12:30:48;99421.06;;;16.01;69.19
19112;BME280;9688;51.906;8.376;2024-03-02T12:33:34;99421.28;;;16.10;68.24
19112;BME280;9688;51.906;8.376;2024-03-02T12:36:19;99414.13;;;16.21;68.06
19112;BME280;9688;51.906;8.376;2024-03-02T12:39:06;99418.81;;;16.29;67.97
19112;BME280;9688;51.906;8.376;2024-03-02T12:41:52;99410.19;;;16.37;67.88
19112;BME280;9688;51.906;8.376;2024-03-02T12:44:39;99411.69;;;16.30;68.52
19112;BME280;9688;51.906;8.376;2024-03-02T12:47:24;99412.31;;;16.22;69.24
19112;BME280;9688;51.906;8.376;2024-03-02T12:50:10;99411.09;;;16.15;69.54
19112;BME280;9688;51.906;8.376;2024-03-02T12:52:55;99416.09;;;16.08;69.73
19112;BME280;9688;51.906;8.376;2024-03-02T12:55:42;99409.31;;;16.04;70.10
19112;BME280;9688;51.906;8.376;2024-03-02T12:58:28;99410.13;;;16.04;70.10
19112;BME280;9688;51.906;8.376;2024-03-02T13:01:15;99405.94;;;16.02;70.20
19112;BME280;9688;51.906;8.376;2024-03-02T13:04:03;99411.38;;;16.00;71.04
19112;BME280;9688;51.906;8.376;2024-03-02T13:06:48;99403.63;;;15.97;71.12
19112;BME280;9688;51.906;8.376;2024-03-02T13:09:34;99404.97;;;15.80;70.84
19112;BME280;9688;51.906;8.376;2024-03-02T13:12:22;99405.84;;;15.70;71.82
19112;BME280;9688;51.906;8.376;2024-03-02T13:15:08;99402.53;;;15.66;72.17
19112;BME280;9688;51.906;8.376;2024-03-02T13:17:53;99397.81;;;15.58;72.36
19112;BME280;9688;51.906;8.376;2024-03-02T13:20:38;99397.81;;;15.47;72.13
19112;BME280;9688;51.906;8.376;2024-03-02T13:23:23;99389.94;;;15.46;72.46
19112;BME280;9688;51.906;8.376;2024-03-02T13:26:09;99390.91;;;15.45;72.78
19112;BME280;9688;51.906;8.376;2024-03-02T13:28:57;99382.66;;;15.36;73.00
19112;BME280;9688;51.906;8.376;2024-03-02T13:31:43;99390.31;;;15.30;73.03
19112;BME280;9688;51.906;8.376;2024-03-02T13:34:28;99391.84;;;15.21;73.21
19112;BME280;9688;51.906;8.376;2024-03-02T13:37:13;99380.59;;;15.17;73.39
19112;BME280;9688;51.906;8.376;2024-03-02T13:39:58;99391.13;;;15.19;73.89
19112;BME280;9688;51.906;8.376;2024-03-02T13:42:44;99384.72;;;15.22;73.98
19112;BME280;9688;51.906;8.376;2024-03-02T13:45:31;99387.25;;;15.23;73.84
19112;BME280;9688;51.906;8.376;2024-03-02T13:48:17;99376.94;;;15.18;73.59
19112;BME280;9688;51.906;8.376;2024-03-02T13:51:03;99375.75;;;15.11;74.11
19112;BME280;9688;51.906;8.376;2024-03-02T13:53:49;99372.00;;;15.14;74.50
19112;BME280;9688;51.906;8.376;2024-03-02T13:56:34;99385.91;;;15.17;74.04
19112;BME280;9688;51.906;8.376;2024-03-02T13:59:23;99373.19;;;15.21;74.24
19112;BME280;9688;51.906;8.376;2024-03-02T14:02:11;99367.53;;;15.26;74.05
19112;BME280;9688;51.906;8.376;2024-03-02T14:04:57;99370.34;;;15.35;73.79
19112;BME280;9688;51.906;8.376;2024-03-02T14:07:42;99367.91;;;15.44;74.03
19112;BME280;9688;51.906;8.376;2024-03-02T14:10:27;99370.09;;;15.38;73.97
19112;BME280;9688;51.906;8.376;2024-03-02T14:13:12;99370.69;;;15.42;74.04
19112;BME280;9688;51.906;8.376;2024-03-02T14:15:59;99365.84;;;15.36;74.06
19112;BME280;9688;51.906;8.376;2024-03-02T14:18:46;99361.47;;;15.24;74.14
19112;BME280;9688;51.906;8.376;2024-03-02T14:21:31;99362.94;;;15.16;74.34
19112;BME280;9688;51.906;8.376;2024-03-02T14:24:16;99360.25;;;15.05;74.28
19112;BME280;9688;51.906;8.376;2024-03-02T14:27:02;99356.13;;;15.01;74.73
19112;BME280;9688;51.906;8.376;2024-03-02T14:29:48;99357.44;;;14.95;74.67
19112;BME280;9688;51.906;8.376;2024-03-02T14:32:33;99355.03;;;14.92;74.84
19112;BME280;9688;51.906;8.376;2024-03-02T14:35:20;99344.63;;;14.89;75.15
19112;BME280;9688;51.906;8.376;2024-03-02T14:38:06;99346.44;;;14.89;74.78
19112;BME280;9688;51.906;8.376;2024-03-02T14:40:51;99349.19;;;14.87;74.86
19112;BME280;9688;51.906;8.376;2024-03-02T14:43:37;99344.94;;;14.85;74.96
19112;BME280;9688;51.906;8.376;2024-03-02T14:46:22;99340.47;;;14.85;75.09
19112;BME280;9688;51.906;8.376;2024-03-02T14:49:07;99337.81;;;14.85;74.96
19112;BME280;9688;51.906;8.376;2024-03-02T14:51:54;99335.06;;;14.87;74.79
19112;BME280;9688;51.906;8.376;2024-03-02T14:54:40;99340.47;;;14.85;74.83
19112;BME280;9688;51.906;8.376;2024-03-02T14:57:26;99345.94;;;14.84;74.76
19112;BME280;9688;51.906;8.376;2024-03-02T15:00:11;99338.94;;;14.83;75.23